Time;durP1;ratioP1;P1;durP2;ratioP2;P2;SDS_P1;SDS_P2;PMS_P1;PMS_P2;Temp;Humidity;BMP_temperature;BMP_pressure;BME280_temperature;BME280_humidity;BME280_pressure;Samples;Min_cycle;Max_cycle;Signal;HPM_P1;HPM_P2
2021/08/12 00:02:04;;;;;;;8.45;4.75;;;17.90;99.90;;;;;;6251170;28;20119;-77
2021/08/12 00:05:07;;;;;;;6.20;5.18;;;17.90;99.90;;;;;;6250133;28;20519;-77
2021/08/12 00:08:09;;;;;;;9.07;5.15;;;17.90;99.90;;;;;;6251638;28;20049;-76
2021/08/12 00:11:11;;;;;;;5.10;4.45;;;17.80;99.90;;;;;;6250738;28;20052;-76
2021/08/12 00:14:14;;;;;;;7.88;4.95;;;17.70;99.90;;;;;;6250821;28;20175;-76
2021/08/12 00:17:16;;;;;;;5.43;4.78;;;17.70;99.90;;;;;;6250197;28;20125;-77
2021/08/12 00:20:18;;;;;;;8.15;6.13;;;17.70;99.90;;;;;;6250519;28;20077;-77
2021/08/12 00:23:20;;;;;;;6.00;4.75;;;17.70;99.90;;;;;;6250386;28;20128;-76
2021/08/12 00:26:21;;;;;;;9.88;5.70;;;17.70;99.90;;;;;;6250472;28;20188;-77
2021/08/12 00:29:25;;;;;;;5.95;4.72;;;17.70;99.90;;;;;;6249600;28;20470;-76
2021/08/12 00:32:27;;;;;;;10.25;4.43;;;17.60;99.90;;;;;;6249196;28;20467;-77
2021/08/12 00:35:28;;;;;;;7.13;5.03;;;17.60;99.90;;;;;;6249510;28;20120;-76
2021/08/12 00:38:30;;;;;;;6.13;5.53;;;17.60;99.90;;;;;;6247838;28;20172;-76
2021/08/12 00:41:35;;;;;;;6.85;5.45;;;17.60;99.90;;;;;;6249318;28;20545;-76
2021/08/12 00:44:39;;;;;;;9.38;5.97;;;17.50;99.90;;;;;;6249670;28;20049;-76
2021/08/12 00:47:40;;;;;;;8.30;4.85;;;17.50;99.90;;;;;;6246414;28;20084;-76
2021/08/12 00:50:43;;;;;;;5.90;5.30;;;17.50;99.90;;;;;;6249412;28;20142;-76
2021/08/12 00:53:46;;;;;;;9.38;4.47;;;17.50;99.90;;;;;;6249727;28;20079;-76
2021/08/12 00:56:48;;;;;;;11.60;4.85;;;17.50;99.90;;;;;;6249953;28;20046;-77
2021/08/12 00:59:52;;;;;;;5.00;4.40;;;17.50;99.90;;;;;;6251245;28;20538;-78
2021/08/12 01:02:54;;;;;;;9.02;5.50;;;17.50;99.90;;;;;;6254516;28;20510;-77
2021/08/12 01:05:56;;;;;;;8.48;5.47;;;17.40;99.90;;;;;;6249877;28;20084;-76
2021/08/12 01:09:05;;;;;;;9.73;6.38;;;17.40;99.90;;;;;;6249151;28;20075;-76
2021/08/12 01:12:16;;;;;;;10.70;5.13;;;17.40;99.90;;;;;;6249227;28;20118;-76
2021/08/12 01:15:26;;;;;;;8.18;4.93;;;17.30;99.90;;;;;;6249982;28;20128;-77
2021/08/12 01:18:33;;;;;;;6.55;4.57;;;17.30;99.90;;;;;;6252612;28;20075;-78
2021/08/12 01:21:52;;;;;;;5.53;4.80;;;17.20;99.90;;;;;;6251832;28;20132;-78
2021/08/12 01:25:12;;;;;;;4.97;4.15;;;17.10;99.90;;;;;;6252286;28;20073;-78
2021/08/12 01:28:19;;;;;;;10.32;5.00;;;17.10;99.90;;;;;;6249289;28;20103;-77
2021/08/12 01:31:42;;;;;;;6.75;4.70;;;17.00;99.90;;;;;;6249314;28;20124;-78
2021/08/12 01:35:02;;;;;;;8.65;4.57;;;17.00;99.90;;;;;;6249070;28;20049;-77
2021/08/12 01:38:07;;;;;;;6.43;4.88;;;17.00;99.90;;;;;;6248987;28;20081;-78
2021/08/12 01:41:09;;;;;;;7.70;5.43;;;17.00;99.90;;;;;;6249027;28;20084;-77
2021/08/12 01:44:13;;;;;;;6.75;4.47;;;16.90;99.90;;;;;;6249195;28;20056;-78
2021/08/12 01:47:17;;;;;;;7.28;5.32;;;16.90;99.90;;;;;;6250477;28;20045;-78
2021/08/12 01:50:21;;;;;;;8.48;5.53;;;16.90;99.90;;;;;;6255253;28;20089;-77
2021/08/12 01:53:23;;;;;;;7.35;5.82;;;16.90;99.90;;;;;;6280521;28;20072;-77
2021/08/12 01:56:27;;;;;;;5.70;4.50;;;16.80;99.90;;;;;;6279708;28;20073;-77
2021/08/12 01:59:29;;;;;;;7.63;5.47;;;16.80;99.90;;;;;;6279756;28;20068;-76
2021/08/12 02:02:32;;;;;;;5.03;4.53;;;16.80;99.90;;;;;;6279788;28;20083;-77
2021/08/12 02:05:37;;;;;;;6.72;5.82;;;16.80;99.90;;;;;;6279343;28;20068;-78
2021/08/12 02:08:39;;;;;;;5.75;4.93;;;16.70;99.90;;;;;;6279527;28;20037;-77
2021/08/12 02:11:43;;;;;;;6.53;5.38;;;16.70;99.90;;;;;;6279413;28;20033;-77
2021/08/12 02:14:45;;;;;;;7.25;5.72;;;16.60;99.90;;;;;;6278979;28;20067;-77
2021/08/12 02:17:47;;;;;;;7.65;5.35;;;16.60;99.90;;;;;;6278053;28;20049;-77
2021/08/12 02:20:53;;;;;;;6.72;5.07;;;16.60;99.90;;;;;;6279189;28;20056;-77
2021/08/12 02:24:00;;;;;;;7.22;4.43;;;16.60;99.90;;;;;;6278506;28;20037;-77
2021/08/12 02:27:05;;;;;;;10.05;5.53;;;16.50;99.90;;;;;;6278250;28;20969;-77
2021/08/12 02:30:09;;;;;;;7.60;5.43;;;16.50;99.90;;;;;;6260701;28;20092;-75
2021/08/12 02:33:13;;;;;;;5.38;4.25;;;16.50;99.90;;;;;;6248843;28;20045;-76
2021/08/12 02:36:17;;;;;;;7.38;4.60;;;16.50;99.90;;;;;;6248543;28;20042;-76
2021/08/12 02:39:19;;;;;;;6.32;5.22;;;16.50;99.90;;;;;;6248571;28;20073;-76
2021/08/12 02:42:22;;;;;;;6.72;5.53;;;16.50;99.90;;;;;;6248671;28;20573;-76
2021/08/12 02:45:25;;;;;;;10.77;4.50;;;16.50;99.90;;;;;;6247663;28;20123;-76
2021/08/12 02:48:29;;;;;;;7.95;5.93;;;16.50;99.90;;;;;;6249377;28;20124;-77
2021/08/12 02:51:34;;;;;;;6.05;5.30;;;16.50;99.90;;;;;;6253998;28;20131;-77
2021/08/12 02:54:37;;;;;;;6.15;4.95;;;16.50;99.90;;;;;;6253937;28;20618;-76
2021/08/12 02:57:39;;;;;;;5.40;4.90;;;16.40;99.90;;;;;;6252987;28;20049;-78
2021/08/12 03:00:41;;;;;;;9.20;4.43;;;16.40;99.90;;;;;;6250279;28;20057;-77
2021/08/12 03:03:46;;;;;;;6.63;5.35;;;16.40;99.90;;;;;;6279591;23;20063;-79
2021/08/12 03:06:54;;;;;;;8.07;5.75;;;16.30;99.90;;;;;;6283009;28;20102;-79
2021/08/12 03:09:57;;;;;;;6.22;4.90;;;16.30;99.90;;;;;;6286042;28;20053;-79
2021/08/12 03:13:01;;;;;;;7.85;5.47;;;16.30;99.90;;;;;;6284499;28;20156;-79
2021/08/12 03:16:05;;;;;;;11.13;4.57;;;16.30;99.90;;;;;;6282559;28;20421;-79
2021/08/12 03:19:07;;;;;;;9.60;5.82;;;16.20;99.90;;;;;;6283629;28;20041;-79
2021/08/12 03:22:12;;;;;;;6.13;4.88;;;16.20;99.90;;;;;;6283453;28;20102;-79
2021/08/12 03:25:14;;;;;;;5.53;4.75;;;16.50;99.90;;;;;;6278477;28;20128;-78
2021/08/12 03:28:18;;;;;;;6.40;5.20;;;16.60;99.90;;;;;;6279676;28;20433;-79
2021/08/12 03:31:20;;;;;;;7.10;4.28;;;16.60;99.90;;;;;;6281508;28;20048;-79
2021/08/12 03:34:22;;;;;;;7.78;4.30;;;16.60;99.90;;;;;;6280870;28;20094;-79
2021/08/12 03:37:25;;;;;;;5.72;5.13;;;16.70;99.90;;;;;;6280027;28;20052;-79
2021/08/12 03:40:27;;;;;;;8.70;5.80;;;16.80;99.90;;;;;;6279290;28;20072;-78
2021/08/12 03:43:29;;;;;;;6.32;5.50;;;16.80;99.90;;;;;;6279646;28;20072;-78
2021/08/12 03:46:30;;;;;;;8.07;5.80;;;16.90;99.90;;;;;;6281367;28;20080;-79
2021/08/12 03:49:32;;;;;;;9.18;5.15;;;17.00;99.90;;;;;;6281123;28;20125;-79
2021/08/12 03:52:35;;;;;;;8.85;4.78;;;17.10;99.90;;;;;;6282123;28;20118;-79
2021/08/12 03:55:37;;;;;;;7.28;5.32;;;17.00;99.90;;;;;;6281142;28;20080;-79
2021/08/12 03:58:40;;;;;;;5.65;4.13;;;17.00;99.70;;;;;;6280544;28;20486;-79
2021/08/12 04:01:42;;;;;;;8.05;5.00;;;17.00;99.80;;;;;;6281900;28;20079;-79
2021/08/12 04:04:44;;;;;;;7.63;4.05;;;16.90;99.60;;;;;;6280938;28;20044;-78
2021/08/12 04:07:47;;;;;;;6.50;4.05;;;16.90;99.70;;;;;;6280752;28;20045;-79
2021/08/12 04:10:50;;;;;;;4.70;3.78;;;16.90;99.50;;;;;;6280262;28;20159;-79
2021/08/12 04:13:52;;;;;;;8.13;4.53;;;16.80;99.20;;;;;;6279903;28;20053;-78
2021/08/12 04:16:54;;;;;;;4.85;4.32;;;16.90;99.40;;;;;;6277554;28;20041;-78
2021/08/12 04:19:56;;;;;;;5.15;4.50;;;17.00;99.50;;;;;;6279803;28;20072;-78
2021/08/12 04:22:59;;;;;;;9.80;5.93;;;16.90;98.80;;;;;;6278892;28;20119;-78
2021/08/12 04:26:01;;;;;;;11.00;5.28;;;16.70;98.70;;;;;;6280221;28;20068;-79
2021/08/12 04:29:03;;;;;;;7.28;5.45;;;16.60;98.90;;;;;;6278288;28;20132;-79
2021/08/12 04:32:05;;;;;;;7.00;5.30;;;16.60;99.00;;;;;;6279097;28;20125;-78
2021/08/12 04:35:08;;;;;;;6.18;4.65;;;16.50;99.50;;;;;;6280010;28;20069;-78
2021/08/12 04:38:12;;;;;;;9.35;4.40;;;16.50;99.60;;;;;;6277086;28;20187;-78
2021/08/12 04:41:14;;;;;;;9.48;4.85;;;16.50;99.80;;;;;;6280372;28;20075;-79
2021/08/12 04:44:15;;;;;;;9.40;4.50;;;16.60;99.90;;;;;;6279650;28;20065;-79
2021/08/12 04:47:17;;;;;;;5.55;4.85;;;16.70;99.90;;;;;;6278897;28;20561;-78
2021/08/12 04:50:19;;;;;;;6.78;4.47;;;16.80;99.90;;;;;;6278941;28;20048;-78
2021/08/12 04:53:22;;;;;;;6.15;4.22;;;17.00;99.60;;;;;;6279326;28;20562;-78
2021/08/12 04:56:24;;;;;;;12.18;5.05;;;17.10;99.20;;;;;;6279626;28;20053;-79
2021/08/12 04:59:26;;;;;;;7.75;5.38;;;17.10;99.10;;;;;;6278828;28;20119;-78
2021/08/12 05:02:28;;;;;;;6.88;5.18;;;17.20;99.20;;;;;;6277625;28;20525;-78
2021/08/12 05:05:30;;;;;;;10.05;5.70;;;17.40;99.10;;;;;;6277199;28;20072;-78
2021/08/12 05:08:33;;;;;;;10.77;5.32;;;17.50;98.80;;;;;;6278382;28;20176;-78
2021/08/12 05:11:35;;;;;;;5.68;4.85;;;17.60;98.60;;;;;;6275908;28;20060;-78
2021/08/12 05:14:36;;;;;;;6.57;5.55;;;17.70;98.40;;;;;;6278124;28;20513;-78
2021/08/12 05:17:38;;;;;;;7.90;5.05;;;17.80;98.10;;;;;;6278796;28;20079;-78
2021/08/12 05:20:40;;;;;;;7.47;5.25;;;17.80;98.10;;;;;;6278178;28;20048;-78
2021/08/12 05:23:44;;;;;;;5.45;4.45;;;17.80;97.80;;;;;;6277946;28;20041;-79
2021/08/12 05:26:46;;;;;;;6.13;4.32;;;17.80;97.70;;;;;;6279366;28;20092;-78
2021/08/12 05:29:48;;;;;;;12.80;5.75;;;17.80;97.50;;;;;;6278365;28;20494;-79
2021/08/12 05:32:50;;;;;;;9.40;5.07;;;17.70;97.40;;;;;;6278598;28;20049;-79
2021/08/12 05:35:52;;;;;;;13.57;4.80;;;17.70;97.60;;;;;;6278906;28;20079;-79
2021/08/12 05:38:57;;;;;;;11.85;5.43;;;17.60;97.50;;;;;;6278773;28;20099;-78
2021/08/12 05:41:59;;;;;;;11.55;5.28;;;17.70;97.70;;;;;;6279158;28;20132;-79
2021/08/12 05:45:01;;;;;;;16.55;5.70;;;17.80;97.80;;;;;;6279584;28;20071;-79
2021/08/12 05:48:04;;;;;;;11.43;4.70;;;17.90;97.80;;;;;;6279778;28;20072;-79
2021/08/12 05:51:05;;;;;;;6.22;4.07;;;17.90;97.90;;;;;;6280079;28;20060;-79
2021/08/12 05:54:09;;;;;;;6.15;4.78;;;18.10;97.90;;;;;;6279941;28;20083;-78
2021/08/12 05:57:10;;;;;;;8.73;5.20;;;18.30;97.90;;;;;;6280053;28;20049;-79
2021/08/12 06:00:13;;;;;;;6.85;5.78;;;18.50;97.80;;;;;;6280969;28;20122;-79
2021/08/12 06:03:16;;;;;;;6.45;4.43;;;18.80;97.50;;;;;;6276920;28;20116;-79
2021/08/12 06:06:18;;;;;;;8.82;5.07;;;19.10;97.20;;;;;;6272559;28;20186;-78
2021/08/12 06:09:21;;;;;;;7.28;5.32;;;19.60;96.40;;;;;;6281641;28;20075;-78
2021/08/12 06:12:23;;;;;;;8.52;6.30;;;20.10;95.00;;;;;;6280498;28;20103;-79
2021/08/12 06:15:25;;;;;;;4.43;4.00;;;20.40;93.80;;;;;;6280760;28;20579;-79
2021/08/12 06:18:27;;;;;;;6.13;5.00;;;20.60;92.60;;;;;;6280294;28;20466;-79
2021/08/12 06:21:29;;;;;;;8.90;5.28;;;20.80;91.80;;;;;;6280074;28;20453;-79
2021/08/12 06:24:32;;;;;;;9.35;4.72;;;21.00;91.20;;;;;;6281539;28;20572;-79
2021/08/12 06:27:34;;;;;;;8.70;5.43;;;21.10;90.60;;;;;;6280827;28;20040;-79
2021/08/12 06:30:36;;;;;;;9.00;6.28;;;21.20;90.10;;;;;;6280735;28;20087;-79
2021/08/12 06:33:38;;;;;;;7.40;5.15;;;21.30;89.60;;;;;;6281050;28;20384;-79
2021/08/12 06:36:40;;;;;;;16.02;5.97;;;21.40;89.40;;;;;;6279332;28;20099;-78
2021/08/12 06:39:43;;;;;;;8.45;5.05;;;21.40;89.30;;;;;;6279040;28;20045;-79
2021/08/12 06:42:46;;;;;;;8.15;6.35;;;21.60;88.10;;;;;;6279126;28;20130;-79
2021/08/12 06:45:48;;;;;;;12.10;6.50;;;21.70;87.10;;;;;;6279269;28;20139;-78
2021/08/12 06:48:49;;;;;;;9.13;4.60;;;21.90;87.40;;;;;;6279511;28;20118;-78
2021/08/12 06:51:51;;;;;;;5.13;4.63;;;22.20;85.50;;;;;;6278824;28;20049;-79
2021/08/12 06:54:54;;;;;;;8.35;5.70;;;22.50;84.50;;;;;;6279192;28;20099;-79
2021/08/12 06:57:56;;;;;;;6.53;5.82;;;22.70;82.70;;;;;;6279796;28;20076;-79
2021/08/12 07:00:58;;;;;;;7.63;5.07;;;22.80;81.80;;;;;;6279311;28;20163;-79
2021/08/12 07:04:00;;;;;;;8.65;5.53;;;23.00;80.30;;;;;;6278221;28;20131;-78
2021/08/12 07:07:02;;;;;;;5.78;5.18;;;23.20;77.60;;;;;;6277570;28;20151;-78
2021/08/12 07:10:06;;;;;;;6.50;4.85;;;23.10;76.20;;;;;;6277562;28;20541;-78
2021/08/12 07:13:08;;;;;;;5.13;4.28;;;23.10;76.80;;;;;;6277436;28;20498;-78
2021/08/12 07:16:14;;;;;;;5.82;4.88;;;23.20;76.40;;;;;;6276673;28;20135;-79
2021/08/12 07:19:16;;;;;;;5.82;4.20;;;23.40;76.20;;;;;;6277497;28;20051;-78
2021/08/12 07:22:19;;;;;;;6.20;4.85;;;23.70;75.40;;;;;;6278914;28;20049;-78
2021/08/12 07:25:23;;;;;;;7.75;5.25;;;24.10;73.80;;;;;;6277540;28;20434;-79
2021/08/12 07:28:25;;;;;;;5.22;4.72;;;24.30;72.80;;;;;;6277742;28;20585;-80
2021/08/12 07:31:26;;;;;;;8.15;4.55;;;24.50;71.70;;;;;;6280884;28;20041;-81
2021/08/12 07:34:28;;;;;;;7.10;5.45;;;24.60;71.60;;;;;;6282353;28;20099;-81
2021/08/12 07:37:30;;;;;;;13.85;4.80;;;24.90;71.00;;;;;;6286533;28;20108;-81
2021/08/12 07:40:33;;;;;;;7.65;5.68;;;25.10;69.90;;;;;;6289692;28;20045;-80
2021/08/12 07:43:35;;;;;;;7.80;5.18;;;25.40;69.00;;;;;;6289492;28;20107;-80
2021/08/12 07:46:37;;;;;;;9.10;6.15;;;25.70;67.90;;;;;;6287779;28;20041;-80
2021/08/12 07:49:39;;;;;;;15.30;4.40;;;26.00;67.30;;;;;;6283994;28;20052;-79
2021/08/12 07:52:42;;;;;;;5.78;4.43;;;26.10;66.50;;;;;;6282842;28;20049;-79
2021/08/12 07:55:45;;;;;;;5.45;4.63;;;26.30;65.90;;;;;;6282514;28;20052;-79
2021/08/12 07:58:48;;;;;;;7.28;4.75;;;26.30;65.80;;;;;;6283707;28;20053;-79
2021/08/12 08:01:53;;;;;;;7.30;4.68;;;26.30;65.00;;;;;;6283269;28;20049;-79
2021/08/12 08:04:54;;;;;;;5.97;5.38;;;26.40;64.60;;;;;;6282404;28;20478;-79
2021/08/12 08:07:57;;;;;;;6.82;4.30;;;26.40;64.00;;;;;;6282432;28;20045;-79
2021/08/12 08:11:00;;;;;;;9.35;5.72;;;26.50;63.70;;;;;;6279798;28;20053;-79
2021/08/12 08:14:02;;;;;;;5.50;4.57;;;26.80;63.10;;;;;;6282720;28;20124;-80
2021/08/12 08:17:04;;;;;;;10.23;4.53;;;26.80;62.20;;;;;;6283466;28;20114;-79
2021/08/12 08:20:08;;;;;;;7.05;4.85;;;27.00;62.10;;;;;;6283625;28;20073;-80
2021/08/12 08:23:11;;;;;;;11.40;5.32;;;27.40;61.90;;;;;;6279927;28;20124;-79
2021/08/12 08:26:14;;;;;;;13.00;4.55;;;27.50;60.90;;;;;;6279111;28;20052;-79
2021/08/12 08:29:16;;;;;;;8.68;4.35;;;27.70;60.50;;;;;;6278840;28;20128;-79
2021/08/12 08:32:18;;;;;;;6.85;5.70;;;28.00;59.80;;;;;;6279892;28;20071;-80
2021/08/12 08:35:20;;;;;;;6.63;4.45;;;28.00;58.40;;;;;;6278368;28;20636;-79
2021/08/12 08:38:22;;;;;;;11.52;5.63;;;27.80;58.90;;;;;;6276227;28;20139;-77
2021/08/12 08:41:25;;;;;;;4.80;4.25;;;27.70;59.00;;;;;;6280967;28;20104;-79
2021/08/12 08:44:30;;;;;;;7.10;4.40;;;27.70;59.10;;;;;;6267769;28;20136;-78
2021/08/12 08:47:32;;;;;;;8.07;4.97;;;27.70;59.20;;;;;;6274839;28;20041;-78
2021/08/12 08:50:36;;;;;;;7.38;4.60;;;27.80;59.20;;;;;;6274278;28;20508;-78
2021/08/12 08:53:40;;;;;;;8.02;5.88;;;27.80;59.10;;;;;;6273486;28;20456;-78
2021/08/12 08:56:44;;;;;;;36.63;7.15;;;27.80;58.90;;;;;;6273645;28;20077;-78
2021/08/12 08:59:47;;;;;;;11.57;5.13;;;27.70;60.00;;;;;;6273353;28;20414;-77
2021/08/12 09:02:50;;;;;;;7.57;5.95;;;27.70;60.80;;;;;;6272989;28;20081;-78
2021/08/12 09:05:52;;;;;;;7.38;5.38;;;27.70;60.40;;;;;;6268437;23;20510;-77
2021/08/12 09:08:55;;;;;;;6.95;5.13;;;27.70;61.20;;;;;;6252221;28;20525;-77
2021/08/12 09:11:59;;;;;;;7.10;5.05;;;27.70;61.20;;;;;;6248904;28;20135;-78
2021/08/12 09:15:07;;;;;;;13.02;6.82;;;27.70;61.40;;;;;;6226980;28;20495;-78
2021/08/12 09:18:22;;;;;;;6.55;5.88;;;27.60;61.90;;;;;;6225482;28;20085;-78
2021/08/12 09:21:24;;;;;;;10.23;6.22;;;27.50;62.30;;;;;;6224973;28;20081;-78
2021/08/12 09:24:27;;;;;;;8.30;6.28;;;27.60;62.70;;;;;;6224488;28;20069;-78
2021/08/12 09:27:30;;;;;;;6.53;5.97;;;27.60;62.50;;;;;;6225283;28;20061;-77
2021/08/12 09:30:32;;;;;;;196.20;26.67;;;27.70;62.50;;;;;;6241537;28;20092;-77
2021/08/12 09:33:41;;;;;;;10.15;6.72;;;27.80;62.60;;;;;;6249254;28;20049;-77
2021/08/12 09:36:43;;;;;;;6.00;5.35;;;27.90;62.50;;;;;;6248021;28;20588;-77
2021/08/12 09:39:46;;;;;;;12.75;5.43;;;28.00;62.00;;;;;;6248203;28;20073;-78
2021/08/12 09:43:00;;;;;;;7.45;4.65;;;28.20;61.90;;;;;;6244622;28;20054;-77
2021/08/12 09:46:05;;;;;;;5.72;5.13;;;28.30;61.80;;;;;;6229653;28;20061;-78
2021/08/12 09:49:07;;;;;;;9.13;6.35;;;28.50;60.80;;;;;;6225232;28;20049;-78
2021/08/12 09:52:20;;;;;;;13.52;5.53;;;28.60;60.20;;;;;;6224268;28;20153;-77
2021/08/12 09:55:23;;;;;;;5.43;4.93;;;28.70;60.20;;;;;;6223244;28;20041;-77
2021/08/12 09:58:34;;;;;;;352.63;27.83;;;28.90;59.90;;;;;;6222991;28;20053;-77
2021/08/12 10:01:36;;;;;;;34.10;30.70;;;29.20;59.30;;;;;;6223366;28;20061;-77
2021/08/12 10:04:38;;;;;;;132.82;18.48;;;29.30;58.90;;;;;;6223636;28;20077;-77
2021/08/12 10:07:42;;;;;;;13.07;9.13;;;29.50;57.90;;;;;;6222956;28;20136;-77
2021/08/12 10:10:44;;;;;;;68.10;39.42;;;29.60;57.20;;;;;;6224829;28;20050;-77
2021/08/12 10:13:48;;;;;;;11.88;8.32;;;29.50;57.10;;;;;;6238266;28;20627;-78
2021/08/12 10:16:50;;;;;;;17.08;10.02;;;29.70;57.30;;;;;;6250785;28;20049;-78
2021/08/12 10:19:53;;;;;;;15.55;8.88;;;29.80;56.50;;;;;;6251844;28;20137;-78
2021/08/12 10:22:57;;;;;;;12.07;7.95;;;30.10;56.10;;;;;;6250815;28;20435;-77
2021/08/12 10:25:58;;;;;;;57.47;15.93;;;30.20;55.30;;;;;;6251824;28;20113;-77
2021/08/12 10:29:05;;;;;;;61.42;45.00;;;30.40;54.20;;;;;;6251229;28;20598;-77
2021/08/12 10:32:08;;;;;;;17.40;6.85;;;30.50;54.50;;;;;;6249078;28;20058;-77
2021/08/12 10:35:11;;;;;;;13.48;9.60;;;30.50;54.70;;;;;;6247861;28;20079;-78
2021/08/12 10:38:12;;;;;;;33.40;10.05;;;30.70;54.90;;;;;;6247442;28;20052;-77
2021/08/12 10:41:16;;;;;;;15.60;9.85;;;30.90;54.40;;;;;;6248096;28;20187;-78
2021/08/12 10:44:21;;;;;;;15.55;8.05;;;31.20;54.20;;;;;;6243764;28;20065;-78
2021/08/12 10:47:42;;;;;;;633.15;414.55;;;31.40;53.30;;;;;;6244033;28;20084;-78
2021/08/12 10:50:45;;;;;;;294.52;82.25;;;31.60;53.00;;;;;;6247162;28;20128;-77
2021/08/12 10:54:20;;;;;;;16.25;12.60;;;31.80;53.10;;;;;;6248022;28;20072;-77
2021/08/12 10:57:24;;;;;;;11.43;7.22;;;31.90;51.90;;;;;;6244641;28;20336;-78
2021/08/12 11:00:47;;;;;;;465.60;78.28;;;31.90;52.00;;;;;;6247367;28;20063;-77
2021/08/12 11:03:53;;;;;;;75.70;21.00;;;31.90;52.50;;;;;;6247388;28;20135;-77
2021/08/12 11:06:55;;;;;;;167.70;37.83;;;31.90;52.40;;;;;;6247404;28;20049;-77
2021/08/12 11:09:57;;;;;;;18.00;8.98;;;32.10;52.20;;;;;;6250329;28;20167;-78
2021/08/12 11:13:04;;;;;;;14.27;9.40;;;32.00;51.00;;;;;;6246295;28;20526;-77
2021/08/12 11:16:08;;;;;;;11.15;8.77;;;31.70;50.00;;;;;;6228281;28;20203;-77
2021/08/12 11:19:10;;;;;;;16.15;13.65;;;31.30;50.20;;;;;;6241908;28;20049;-77
2021/08/12 11:22:36;;;;;;;94.05;17.90;;;31.00;51.50;;;;;;6252020;28;20111;-77
2021/08/12 11:25:56;;;;;;;11.00;8.70;;;31.00;52.80;;;;;;6252697;28;20065;-77
2021/08/12 11:28:57;;;;;;;14.38;9.00;;;31.20;52.40;;;;;;6251728;28;20477;-78
2021/08/12 11:32:02;;;;;;;10.95;9.10;;;31.30;52.00;;;;;;6252656;28;20046;-77
2021/08/12 11:35:05;;;;;;;16.35;8.80;;;31.50;51.80;;;;;;6251144;28;20041;-77
2021/08/12 11:38:09;;;;;;;637.70;160.27;;;31.70;51.60;;;;;;6251700;28;20046;-77
2021/08/12 11:41:11;;;;;;;10.73;7.95;;;32.00;50.50;;;;;;6254216;28;20111;-77
2021/08/12 11:44:14;;;;;;;9.93;8.35;;;32.10;49.50;;;;;;6249839;28;20065;-77
2021/08/12 11:47:19;;;;;;;10.00;7.72;;;32.20;49.80;;;;;;6251134;28;20132;-78
2021/08/12 11:50:26;;;;;;;5.75;4.90;;;32.40;49.40;;;;;;6251969;28;20049;-77
2021/08/12 11:53:38;;;;;;;951.33;575.20;;;32.50;49.20;;;;;;6251987;28;20131;-78
2021/08/12 11:56:42;;;;;;;1999.90;864.00;;;32.30;48.40;;;;;;6252231;28;20045;-77
2021/08/12 11:59:45;;;;;;;1329.50;999.90;;;32.30;48.40;;;;;;6251607;28;20136;-77
2021/08/12 12:02:50;;;;;;;1999.90;892.08;;;32.40;48.30;;;;;;6250174;28;20083;-76
2021/08/12 12:05:52;;;;;;;7.97;7.18;;;32.70;48.70;;;;;;6250547;28;20097;-76
2021/08/12 12:08:54;;;;;;;1106.68;160.73;;;32.90;48.90;;;;;;6251730;28;20128;-77
2021/08/12 12:11:59;;;;;;;1999.90;999.90;;;33.00;49.40;;;;;;6249806;28;20132;-77
2021/08/12 12:15:00;;;;;;;98.20;9.43;;;33.20;49.00;;;;;;6249704;28;20045;-77
2021/08/12 12:18:04;;;;;;;728.63;85.38;;;33.40;48.40;;;;;;6250988;28;20049;-76
2021/08/12 12:21:08;;;;;;;5.80;4.93;;;33.60;48.20;;;;;;6248992;28;20053;-76
2021/08/12 12:24:10;;;;;;;6.15;5.25;;;33.90;47.30;;;;;;6249043;28;20510;-76
2021/08/12 12:27:12;;;;;;;14.43;7.53;;;34.20;47.40;;;;;;6249200;28;20069;-77
2021/08/12 12:30:16;;;;;;;6.53;4.53;;;34.40;46.80;;;;;;6249555;28;20557;-77
2021/08/12 12:33:22;;;;;;;8.98;5.13;;;34.60;46.50;;;;;;6248783;28;20124;-76
2021/08/12 12:36:24;;;;;;;5.70;5.00;;;34.60;44.90;;;;;;6248562;28;20183;-77
2021/08/12 12:39:26;;;;;;;5.97;5.32;;;34.50;45.40;;;;;;6248964;28;20530;-77
2021/08/12 12:42:32;;;;;;;9.30;5.63;;;34.50;46.10;;;;;;6249516;28;20143;-77
2021/08/12 12:45:49;;;;;;;6.53;5.68;;;34.50;46.00;;;;;;6247968;28;20099;-76
2021/08/12 12:48:52;;;;;;;6.83;5.43;;;34.40;46.20;;;;;;6245868;28;20171;-77
2021/08/12 12:52:04;;;;;;;7.93;6.28;;;34.60;46.00;;;;;;6248399;28;20049;-76
2021/08/12 12:55:18;;;;;;;7.05;5.55;;;34.70;45.50;;;;;;6249664;28;20128;-77
2021/08/12 12:58:21;;;;;;;8.30;4.90;;;34.90;45.30;;;;;;6250269;28;20075;-77
2021/08/12 13:01:25;;;;;;;6.10;5.43;;;34.90;44.40;;;;;;6248957;28;20049;-77
2021/08/12 13:04:28;;;;;;;5.82;5.25;;;34.90;44.40;;;;;;6248276;28;20053;-77
2021/08/12 13:07:30;;;;;;;7.30;5.03;;;35.10;44.70;;;;;;6248273;28;20037;-77
2021/08/12 13:10:32;;;;;;;9.45;6.00;;;35.20;44.90;;;;;;6250396;28;20188;-76
2021/08/12 13:13:36;;;;;;;9.88;4.90;;;35.30;44.10;;;;;;6248216;28;20069;-77
2021/08/12 13:16:39;;;;;;;7.50;5.25;;;35.30;44.40;;;;;;6248614;28;20045;-78
2021/08/12 13:19:42;;;;;;;5.38;4.88;;;35.10;42.60;;;;;;6248214;28;20176;-75
2021/08/12 13:22:45;;;;;;;7.18;5.53;;;34.90;44.30;;;;;;6248195;28;20088;-77
2021/08/12 13:25:57;;;;;;;5.90;5.30;;;34.90;45.10;;;;;;6247855;28;20136;-77
2021/08/12 13:29:04;;;;;;;5.70;5.03;;;35.00;45.00;;;;;;6247427;28;20052;-75
2021/08/12 13:32:07;;;;;;;;;;;35.10;44.30;;;;;;6247318;28;20177;-76
2021/08/12 13:35:11;;;;;;;5.85;5.25;;;35.20;44.60;;;;;;6247267;28;19921;-77
2021/08/12 13:38:12;;;;;;;9.18;5.47;;;35.20;44.20;;;;;;6247393;28;20046;-76
2021/08/12 13:41:14;;;;;;;6.18;4.43;;;35.30;43.80;;;;;;6247285;28;20102;-77
2021/08/12 13:44:16;;;;;;;5.53;4.85;;;35.30;44.10;;;;;;6246946;28;20060;-76
2021/08/12 13:47:18;;;;;;;4.85;4.38;;;35.50;43.40;;;;;;6246049;28;20175;-76
2021/08/12 13:50:22;;;;;;;7.03;4.95;;;35.60;43.20;;;;;;6226064;28;20136;-77
2021/08/12 13:53:23;;;;;;;10.75;5.30;;;35.70;42.30;;;;;;6223336;28;20049;-77
2021/08/12 13:56:25;;;;;;;6.10;5.25;;;35.80;42.20;;;;;;6222557;28;20104;-77
2021/08/12 13:59:27;;;;;;;6.30;4.97;;;35.90;42.50;;;;;;6222811;28;20537;-77
2021/08/12 14:02:29;;;;;;;11.57;5.10;;;36.10;42.10;;;;;;6222473;28;20188;-76
2021/08/12 14:05:32;;;;;;;6.32;4.95;;;36.20;41.60;;;;;;6222159;28;20544;-76
2021/08/12 14:08:34;;;;;;;6.25;5.60;;;36.20;41.30;;;;;;6222545;28;20143;-76
2021/08/12 14:11:37;;;;;;;6.45;5.45;;;36.30;41.50;;;;;;6222313;28;20127;-76
2021/08/12 14:14:38;;;;;;;7.50;4.93;;;36.40;41.30;;;;;;6241247;28;20099;-76
2021/08/12 14:17:42;;;;;;;9.60;5.55;;;36.50;40.70;;;;;;6246666;28;20042;-74
2021/08/12 14:20:45;;;;;;;8.32;5.47;;;36.50;41.00;;;;;;6246868;28;20045;-76
2021/08/12 14:23:48;;;;;;;7.13;6.22;;;36.50;40.30;;;;;;6247070;28;20045;-75
2021/08/12 14:26:50;;;;;;;9.10;5.00;;;36.50;40.60;;;;;;6248023;28;20179;-75
2021/08/12 14:29:51;;;;;;;7.30;5.38;;;36.60;40.30;;;;;;6247679;28;20061;-75
2021/08/12 14:32:53;;;;;;;6.78;5.00;;;36.60;40.20;;;;;;6247036;28;20072;-75
2021/08/12 14:36:00;;;;;;;8.10;5.72;;;36.60;39.90;;;;;;6246171;28;20140;-76
2021/08/12 14:39:05;;;;;;;11.27;5.68;;;36.90;40.00;;;;;;6221617;28;20049;-75
2021/08/12 14:52:12;;;;;;;8.15;6.35;;;34.40;40.90;;;;;;6309359;27;20405;-77
2021/08/12 14:55:14;;;;;;;9.10;6.53;;;35.00;38.80;;;;;;6285075;28;20415;-77
2021/08/12 14:58:17;;;;;;;7.90;6.15;;;35.70;37.00;;;;;;6286359;28;20423;-77
2021/08/12 15:01:19;;;;;;;10.65;6.57;;;35.90;35.50;;;;;;6290919;28;20424;-77
2021/08/12 15:04:21;;;;;;;7.68;6.45;;;35.90;35.00;;;;;;6277866;28;20411;-77
2021/08/12 15:07:24;;;;;;;7.38;6.15;;;36.10;34.60;;;;;;6257981;28;20477;-74
2021/08/12 15:10:26;;;;;;;7.28;6.40;;;36.50;33.70;;;;;;6266793;28;20457;-73
2021/08/12 15:13:28;;;;;;;8.13;6.35;;;37.00;32.50;;;;;;6265976;28;20513;-75
2021/08/12 15:16:30;;;;;;;6.53;5.82;;;37.30;32.50;;;;;;6249471;28;20474;-75
2021/08/12 15:19:32;;;;;;;7.80;5.90;;;37.60;31.70;;;;;;6241074;28;21072;-77
2021/08/12 15:22:35;;;;;;;9.30;6.53;;;37.80;30.80;;;;;;6241754;28;20440;-76
2021/08/12 15:25:37;;;;;;;8.95;6.00;;;37.80;30.00;;;;;;6241195;28;20416;-75
2021/08/12 15:28:39;;;;;;;6.85;5.78;;;37.70;29.70;;;;;;6257553;28;20505;-75
2021/08/12 15:31:41;;;;;;;7.10;6.30;;;37.60;29.50;;;;;;6257034;28;20419;-74
2021/08/12 15:34:42;;;;;;;5.87;5.23;;;37.70;30.10;;;;;;6241025;28;20962;-75
2021/08/12 15:37:46;;;;;;;6.72;5.95;;;37.90;30.10;;;;;;6266060;28;20430;-75
2021/08/12 15:40:48;;;;;;;8.57;6.43;;;38.00;30.10;;;;;;6245760;28;20546;-74
2021/08/12 15:43:49;;;;;;;8.10;6.18;;;38.10;29.70;;;;;;6250347;28;21045;-75
2021/08/12 15:46:51;;;;;;;8.68;5.85;;;37.90;30.70;;;;;;6262747;28;20469;-74
2021/08/12 15:49:53;;;;;;;6.93;6.20;;;37.60;30.50;;;;;;6240561;28;20436;-74
2021/08/12 15:52:56;;;;;;;9.30;6.85;;;37.60;30.40;;;;;;6240114;28;20498;-77
2021/08/12 15:55:58;;;;;;;7.32;6.55;;;37.60;30.30;;;;;;6239589;28;20796;-77
2021/08/12 15:59:00;;;;;;;7.27;6.20;;;37.30;32.10;;;;;;6240462;28;20513;-79
2021/08/12 16:02:02;;;;;;;8.15;6.47;;;37.10;30.90;;;;;;6231751;28;20464;-77